ETD237 OMAA-OMDB
Flight info
| Callsign | ETD237 |
|---|---|
| Flight time | 0h 30m |
| Altitude | 9000 |
| Route | LORID |
| Aircraft | A320/M-SDE3FGHIRWY/LB1 |
Departure
| Time | 2026-04-25 11:57 |
|---|---|
| Airport | Zayed International Airport (OMAA) |
Arrival
| Time | 2026-04-25 12:27 |
|---|---|
| Airport | Dubai International Airport (OMDB) |
| Time | Latitude | Longitude | Altitude | Speed | Heading |
|---|---|---|---|---|---|
| 2026-04-25 11:36 | 24.43182 | 54.64189 | 60 ft | 0 kts | 218° |
| 2026-04-25 11:36 | 24.43181 | 54.64189 | 60 ft | 0 kts | 218° |
| 2026-04-25 11:37 | 24.43138 | 54.64245 | 63 ft | 0 kts | 218° |
| 2026-04-25 11:44 | 24.43141 | 54.64247 | 64 ft | 2 kts | 218° |
| 2026-04-25 11:44 | 24.43153 | 54.64258 | 64 ft | 2 kts | 218° |
| 2026-04-25 11:44 | 24.43165 | 54.64268 | 64 ft | 2 kts | 218° |
| 2026-04-25 11:44 | 24.43177 | 54.64278 | 65 ft | 2 kts | 218° |
| 2026-04-25 11:45 | 24.43188 | 54.64288 | 65 ft | 2 kts | 218° |
| 2026-04-25 11:45 | 24.43199 | 54.64297 | 66 ft | 2 kts | 218° |
| 2026-04-25 11:45 | 24.43207 | 54.64304 | 66 ft | 2 kts | 218° |
| 2026-04-25 11:45 | 24.43221 | 54.64310 | 66 ft | 2 kts | 186° |
| 2026-04-25 11:46 | 24.43236 | 54.64309 | 66 ft | 2 kts | 160° |
| 2026-04-25 11:46 | 24.43249 | 54.64301 | 67 ft | 1 kts | 134° |
| 2026-04-25 11:46 | 24.43253 | 54.64296 | 67 ft | 1 kts | 124° |
| 2026-04-25 11:46 | 24.43255 | 54.64292 | 67 ft | 0 kts | 127° |
| 2026-04-25 11:49 | 24.43249 | 54.64301 | 67 ft | 3 kts | 127° |
| 2026-04-25 11:49 | 24.43221 | 54.64342 | 66 ft | 10 kts | 126° |
| 2026-04-25 11:49 | 24.43166 | 54.64422 | 65 ft | 15 kts | 128° |
| 2026-04-25 11:50 | 24.43095 | 54.64521 | 67 ft | 16 kts | 125° |
| 2026-04-25 11:50 | 24.43078 | 54.64625 | 67 ft | 11 kts | 59° |
| 2026-04-25 11:50 | 24.43142 | 54.64688 | 66 ft | 13 kts | 38° |
| 2026-04-25 11:50 | 24.43212 | 54.64760 | 65 ft | 14 kts | 66° |
| 2026-04-25 11:51 | 24.43196 | 54.64866 | 64 ft | 15 kts | 123° |
| 2026-04-25 11:51 | 24.43131 | 54.64961 | 64 ft | 15 kts | 127° |
| 2026-04-25 11:51 | 24.43065 | 54.65055 | 65 ft | 15 kts | 128° |
| 2026-04-25 11:51 | 24.42998 | 54.65148 | 66 ft | 15 kts | 128° |
| 2026-04-25 11:52 | 24.42933 | 54.65242 | 66 ft | 15 kts | 128° |
| 2026-04-25 11:52 | 24.42866 | 54.65334 | 67 ft | 15 kts | 128° |
| 2026-04-25 11:52 | 24.42800 | 54.65429 | 67 ft | 15 kts | 128° |
| 2026-04-25 11:52 | 24.42733 | 54.65524 | 68 ft | 15 kts | 129° |
| 2026-04-25 11:53 | 24.42667 | 54.65616 | 70 ft | 15 kts | 128° |
| 2026-04-25 11:53 | 24.42600 | 54.65711 | 70 ft | 17 kts | 128° |
| 2026-04-25 11:53 | 24.42515 | 54.65830 | 71 ft | 21 kts | 128° |
| 2026-04-25 11:53 | 24.42422 | 54.65960 | 74 ft | 22 kts | 128° |
| 2026-04-25 11:54 | 24.42326 | 54.66096 | 78 ft | 22 kts | 128° |
| 2026-04-25 11:54 | 24.42231 | 54.66236 | 82 ft | 22 kts | 128° |
| 2026-04-25 11:54 | 24.42053 | 54.66485 | 86 ft | 18 kts | 116° |
| 2026-04-25 11:55 | 24.42069 | 54.66614 | 85 ft | 18 kts | 46° |
| 2026-04-25 11:55 | 24.42179 | 54.66673 | 80 ft | 16 kts | 344° |
| 2026-04-25 11:55 | 24.42240 | 54.66618 | 77 ft | 0 kts | 307° |
| 2026-04-25 11:55 | 24.42241 | 54.66617 | 77 ft | 1 kts | 307° |
| 2026-04-25 11:56 | 24.42294 | 54.66541 | 74 ft | 32 kts | 308° |
| 2026-04-25 11:56 | 24.42585 | 54.66136 | 62 ft | 101 kts | 307° |
| 2026-04-25 11:56 | 24.43140 | 54.65351 | 54 ft | 156 kts | 308° |
| 2026-04-25 11:56 | 24.43879 | 54.64348 | 418 ft | 168 kts | 310° |
| 2026-04-25 11:57 | 24.44573 | 54.63408 | 1100 ft | 159 kts | 309° |
| 2026-04-25 11:57 | 24.45261 | 54.62453 | 1638 ft | 162 kts | 308° |
| 2026-04-25 11:57 | 24.45945 | 54.61467 | 1995 ft | 171 kts | 307° |
| 2026-04-25 11:57 | 24.46715 | 54.60354 | 2257 ft | 190 kts | 307° |
| 2026-04-25 11:58 | 24.47550 | 54.59157 | 2597 ft | 207 kts | 308° |
| 2026-04-25 11:58 | 24.48464 | 54.57859 | 2957 ft | 224 kts | 308° |
| 2026-04-25 11:58 | 24.49453 | 54.56462 | 3335 ft | 240 kts | 308° |
| 2026-04-25 11:58 | 24.50498 | 54.54990 | 3918 ft | 247 kts | 308° |
| 2026-04-25 11:59 | 24.51565 | 54.53491 | 4596 ft | 250 kts | 307° |
| 2026-04-25 11:59 | 24.52635 | 54.51984 | 5274 ft | 253 kts | 306° |
| 2026-04-25 11:59 | 24.53701 | 54.50477 | 5935 ft | 256 kts | 306° |
| 2026-04-25 12:00 | 24.55917 | 54.47336 | 7347 ft | 262 kts | 306° |
| 2026-04-25 12:00 | 24.57025 | 54.45766 | 8045 ft | 265 kts | 306° |
| 2026-04-25 12:00 | 24.59510 | 54.42704 | 8876 ft | 274 kts | 328° |
| 2026-04-25 12:01 | 24.61308 | 54.42047 | 8929 ft | 278 kts | 356° |
| 2026-04-25 12:01 | 24.63220 | 54.42339 | 8945 ft | 279 kts | 22° |
| 2026-04-25 12:01 | 24.64926 | 54.43385 | 8951 ft | 280 kts | 34° |
| 2026-04-25 12:01 | 24.66541 | 54.44607 | 8964 ft | 280 kts | 36° |
| 2026-04-25 12:02 | 24.69716 | 54.47091 | 8938 ft | 280 kts | 36° |
| 2026-04-25 12:02 | 24.71311 | 54.48329 | 8943 ft | 280 kts | 36° |
| 2026-04-25 12:02 | 24.72905 | 54.49561 | 8947 ft | 280 kts | 36° |
| 2026-04-25 12:03 | 24.74488 | 54.50782 | 8962 ft | 280 kts | 35° |
| 2026-04-25 12:03 | 24.76104 | 54.52024 | 8954 ft | 280 kts | 35° |
| 2026-04-25 12:03 | 24.77690 | 54.53242 | 8961 ft | 280 kts | 35° |
| 2026-04-25 12:03 | 24.79288 | 54.54468 | 8961 ft | 280 kts | 35° |
| 2026-04-25 12:04 | 24.80897 | 54.55702 | 8943 ft | 280 kts | 35° |
| 2026-04-25 12:04 | 24.82504 | 54.56935 | 8947 ft | 280 kts | 35° |
| 2026-04-25 12:04 | 24.84106 | 54.58165 | 8944 ft | 280 kts | 35° |
| 2026-04-25 12:04 | 24.85693 | 54.59384 | 8941 ft | 280 kts | 35° |
| 2026-04-25 12:05 | 24.87297 | 54.60617 | 8956 ft | 281 kts | 35° |
| 2026-04-25 12:05 | 24.88904 | 54.61854 | 8946 ft | 281 kts | 35° |
| 2026-04-25 12:05 | 24.90524 | 54.63099 | 8923 ft | 282 kts | 35° |
| 2026-04-25 12:05 | 24.92121 | 54.64326 | 8932 ft | 281 kts | 35° |
| 2026-04-25 12:06 | 24.93734 | 54.65568 | 8930 ft | 286 kts | 35° |
| 2026-04-25 12:06 | 24.95409 | 54.66874 | 8950 ft | 301 kts | 36° |
| 2026-04-25 12:06 | 24.97136 | 54.68225 | 8960 ft | 304 kts | 35° |
| 2026-04-25 12:06 | 24.98853 | 54.69570 | 8933 ft | 304 kts | 35° |
| 2026-04-25 12:07 | 25.00578 | 54.70920 | 8936 ft | 303 kts | 35° |
| 2026-04-25 12:07 | 25.02316 | 54.72281 | 8939 ft | 304 kts | 35° |
| 2026-04-25 12:07 | 25.04031 | 54.73624 | 8932 ft | 303 kts | 35° |
| 2026-04-25 12:07 | 25.05747 | 54.74968 | 8929 ft | 303 kts | 35° |
| 2026-04-25 12:08 | 25.07483 | 54.76328 | 8926 ft | 303 kts | 35° |
| 2026-04-25 12:08 | 25.09182 | 54.77660 | 8928 ft | 303 kts | 35° |
| 2026-04-25 12:08 | 25.10923 | 54.79024 | 8927 ft | 304 kts | 35° |
| 2026-04-25 12:08 | 25.12647 | 54.80376 | 8926 ft | 304 kts | 35° |
| 2026-04-25 12:09 | 25.14376 | 54.81734 | 8931 ft | 304 kts | 35° |
| 2026-04-25 12:09 | 25.16064 | 54.83135 | 8939 ft | 304 kts | 39° |
| 2026-04-25 12:09 | 25.17697 | 54.84634 | 8941 ft | 304 kts | 40° |
| 2026-04-25 12:09 | 25.19315 | 54.86147 | 8945 ft | 305 kts | 40° |
| 2026-04-25 12:10 | 25.20932 | 54.87661 | 8945 ft | 304 kts | 40° |
| 2026-04-25 12:10 | 25.22564 | 54.89187 | 8949 ft | 303 kts | 40° |
| 2026-04-25 12:10 | 25.24162 | 54.90680 | 8947 ft | 303 kts | 40° |
| 2026-04-25 12:10 | 25.25788 | 54.92198 | 8948 ft | 303 kts | 40° |
| 2026-04-25 12:11 | 25.27399 | 54.93707 | 8947 ft | 303 kts | 42° |
| 2026-04-25 12:11 | 25.28808 | 54.95454 | 8943 ft | 302 kts | 56° |
| 2026-04-25 12:11 | 25.29820 | 54.97451 | 8949 ft | 302 kts | 65° |
| 2026-04-25 12:11 | 25.30711 | 54.99562 | 8929 ft | 302 kts | 66° |
| 2026-04-25 12:12 | 25.31587 | 55.01689 | 8951 ft | 302 kts | 66° |
| 2026-04-25 12:12 | 25.32167 | 55.03083 | 8954 ft | 303 kts | 66° |
| 2026-04-25 12:12 | 25.33358 | 55.05906 | 8934 ft | 303 kts | 65° |
| 2026-04-25 12:12 | 25.34255 | 55.08011 | 8929 ft | 303 kts | 65° |
| 2026-04-25 12:13 | 25.35154 | 55.10118 | 8941 ft | 302 kts | 65° |
| 2026-04-25 12:13 | 25.35887 | 55.12280 | 8935 ft | 301 kts | 79° |
| 2026-04-25 12:13 | 25.36109 | 55.14584 | 8944 ft | 299 kts | 91° |
| 2026-04-25 12:13 | 25.36068 | 55.16879 | 8948 ft | 299 kts | 94° |
| 2026-04-25 12:14 | 25.35988 | 55.19168 | 8970 ft | 298 kts | 94° |
| 2026-04-25 12:14 | 25.35915 | 55.21460 | 8926 ft | 298 kts | 93° |
| 2026-04-25 12:14 | 25.35855 | 55.23737 | 8938 ft | 298 kts | 93° |
| 2026-04-25 12:14 | 25.35801 | 55.26026 | 8940 ft | 299 kts | 92° |
| 2026-04-25 12:15 | 25.35750 | 55.28320 | 8952 ft | 299 kts | 92° |
| 2026-04-25 12:15 | 25.35701 | 55.30637 | 8963 ft | 299 kts | 93° |
| 2026-04-25 12:15 | 25.35439 | 55.32844 | 8904 ft | 284 kts | 111° |
| 2026-04-25 12:15 | 25.34592 | 55.34737 | 8920 ft | 264 kts | 123° |
| 2026-04-25 12:16 | 25.33638 | 55.36416 | 8918 ft | 255 kts | 125° |
| 2026-04-25 12:16 | 25.32680 | 55.38070 | 8936 ft | 256 kts | 124° |
| 2026-04-25 12:16 | 25.31735 | 55.39722 | 8851 ft | 256 kts | 124° |
| 2026-04-25 12:16 | 25.30781 | 55.41408 | 8394 ft | 262 kts | 124° |
| 2026-04-25 12:17 | 25.29802 | 55.43154 | 7924 ft | 268 kts | 123° |
| 2026-04-25 12:17 | 25.28830 | 55.44894 | 7449 ft | 267 kts | 123° |
| 2026-04-25 12:17 | 25.27863 | 55.46630 | 6975 ft | 264 kts | 123° |
| 2026-04-25 12:17 | 25.26898 | 55.48362 | 6498 ft | 264 kts | 123° |
| 2026-04-25 12:18 | 25.25939 | 55.50084 | 5931 ft | 266 kts | 123° |
| 2026-04-25 12:18 | 25.24980 | 55.51808 | 5346 ft | 266 kts | 123° |
| 2026-04-25 12:18 | 25.24016 | 55.53540 | 4704 ft | 265 kts | 122° |
| 2026-04-25 12:18 | 25.23052 | 55.55276 | 4103 ft | 264 kts | 122° |
| 2026-04-25 12:19 | 25.21452 | 55.58145 | 3131 ft | 263 kts | 122° |
| 2026-04-25 12:19 | 25.20190 | 55.60410 | 2383 ft | 261 kts | 121° |
| 2026-04-25 12:19 | 25.19243 | 55.62111 | 2028 ft | 255 kts | 121° |
| 2026-04-25 12:20 | 25.18163 | 55.63662 | 1950 ft | 265 kts | 141° |
| 2026-04-25 12:20 | 25.16527 | 55.64572 | 1946 ft | 267 kts | 170° |
| 2026-04-25 12:20 | 25.14742 | 55.64532 | 1931 ft | 247 kts | 200° |
| 2026-04-25 12:20 | 25.13340 | 55.63589 | 1932 ft | 225 kts | 232° |
| 2026-04-25 12:21 | 25.12708 | 55.62120 | 1928 ft | 206 kts | 266° |
| 2026-04-25 12:21 | 25.12792 | 55.60582 | 1952 ft | 201 kts | 279° |
| 2026-04-25 12:21 | 25.13083 | 55.59070 | 1948 ft | 201 kts | 288° |
| 2026-04-25 12:21 | 25.13598 | 55.57632 | 1956 ft | 202 kts | 296° |
| 2026-04-25 12:22 | 25.14263 | 55.56296 | 2022 ft | 190 kts | 301° |
| 2026-04-25 12:22 | 25.14927 | 55.55109 | 1953 ft | 170 kts | 302° |
| 2026-04-25 12:22 | 25.15520 | 55.54061 | 1916 ft | 154 kts | 302° |
| 2026-04-25 12:22 | 25.16084 | 55.53057 | 1953 ft | 154 kts | 302° |
| 2026-04-25 12:23 | 25.16626 | 55.52085 | 1936 ft | 143 kts | 301° |
| 2026-04-25 12:23 | 25.17138 | 55.51162 | 1933 ft | 140 kts | 300° |
| 2026-04-25 12:23 | 25.17646 | 55.50242 | 1942 ft | 140 kts | 300° |
| 2026-04-25 12:23 | 25.18152 | 55.49324 | 1943 ft | 140 kts | 300° |
| 2026-04-25 12:24 | 25.18661 | 55.48402 | 1788 ft | 140 kts | 301° |
| 2026-04-25 12:24 | 25.19163 | 55.47491 | 1626 ft | 139 kts | 302° |
| 2026-04-25 12:24 | 25.19664 | 55.46584 | 1454 ft | 139 kts | 302° |
| 2026-04-25 12:24 | 25.20169 | 55.45668 | 1278 ft | 138 kts | 302° |
| 2026-04-25 12:25 | 25.20669 | 55.44766 | 1107 ft | 138 kts | 301° |
| 2026-04-25 12:25 | 25.21171 | 55.43861 | 937 ft | 138 kts | 301° |
| 2026-04-25 12:25 | 25.21671 | 55.42956 | 754 ft | 137 kts | 301° |
| 2026-04-25 12:25 | 25.22168 | 55.42060 | 582 ft | 137 kts | 301° |
| 2026-04-25 12:26 | 25.22664 | 55.41168 | 415 ft | 136 kts | 301° |
| 2026-04-25 12:26 | 25.23153 | 55.40283 | 246 ft | 135 kts | 301° |
| 2026-04-25 12:26 | 25.23634 | 55.39413 | 77 ft | 133 kts | 301° |
| 2026-04-25 12:26 | 25.24027 | 55.38714 | 55 ft | 67 kts | 298° |
| 2026-04-25 12:27 | 25.24201 | 55.38388 | 55 ft | 45 kts | 302° |
| 2026-04-25 12:27 | 25.24367 | 55.38090 | 52 ft | 46 kts | 302° |
| 2026-04-25 12:27 | 25.24534 | 55.37791 | 51 ft | 47 kts | 301° |
| 2026-04-25 12:27 | 25.24699 | 55.37491 | 48 ft | 40 kts | 300° |
| 2026-04-25 12:28 | 25.24781 | 55.37219 | 46 ft | 34 kts | 274° |
| 2026-04-25 12:28 | 25.24787 | 55.37036 | 45 ft | 20 kts | 272° |
| 2026-04-25 12:28 | 25.24828 | 55.36894 | 45 ft | 19 kts | 297° |
| 2026-04-25 12:28 | 25.24866 | 55.36753 | 45 ft | 18 kts | 282° |
| 2026-04-25 12:29 | 25.24914 | 55.36621 | 44 ft | 19 kts | 301° |
| 2026-04-25 12:29 | 25.24986 | 55.36492 | 40 ft | 21 kts | 301° |
| 2026-04-25 12:29 | 25.25065 | 55.36350 | 33 ft | 23 kts | 301° |
| 2026-04-25 12:29 | 25.25146 | 55.36201 | 37 ft | 20 kts | 302° |
| 2026-04-25 12:30 | 25.25220 | 55.36071 | 35 ft | 20 kts | 301° |
| 2026-04-25 12:30 | 25.25295 | 55.35933 | 34 ft | 20 kts | 301° |
| 2026-04-25 12:30 | 25.25364 | 55.35809 | 35 ft | 19 kts | 301° |
| 2026-04-25 12:30 | 25.25435 | 55.35680 | 32 ft | 20 kts | 301° |
| 2026-04-25 12:31 | 25.25511 | 55.35545 | 29 ft | 21 kts | 301° |
| 2026-04-25 12:31 | 25.25587 | 55.35405 | 29 ft | 20 kts | 302° |
| 2026-04-25 12:31 | 25.25658 | 55.35279 | 31 ft | 18 kts | 301° |
| 2026-04-25 12:31 | 25.25727 | 55.35155 | 29 ft | 19 kts | 301° |
| 2026-04-25 12:32 | 25.25793 | 55.35029 | 29 ft | 18 kts | 301° |
| 2026-04-25 12:32 | 25.25841 | 55.34903 | 29 ft | 17 kts | 272° |
| 2026-04-25 12:32 | 25.25845 | 55.34779 | 28 ft | 12 kts | 273° |
| 2026-04-25 12:32 | 25.25880 | 55.34687 | 26 ft | 14 kts | 301° |
| 2026-04-25 12:33 | 25.25930 | 55.34597 | 26 ft | 10 kts | 303° |
| 2026-04-25 12:33 | 25.25937 | 55.34560 | 26 ft | 4 kts | 226° |
| 2026-04-25 12:33 | 25.25909 | 55.34536 | 26 ft | 5 kts | 214° |
| 2026-04-25 12:33 | 25.25880 | 55.34515 | 26 ft | 2 kts | 211° |
| 2026-04-25 12:34 | 25.25861 | 55.34502 | 26 ft | 3 kts | 211° |
| 2026-04-25 12:34 | 25.25856 | 55.34499 | 26 ft | 0 kts | 211° |